Mozier, IL (62070)

9:43 AM CDT on September 30, 2014 (GMT -0500)
Katie Hollow | Change Station
CLOSE
Current Station
Personal Weather Station
Location: Kampsville, IL
Elevation: 545 ft
Nearby Weather Stations

Elev 545 ft 39.30 °N, 90.71 °W | Updated 1 second ago

Partly Cloudy
Partly Cloudy
66.2 °F
Feels Like 66.2 °F
N
3.0
Wind Variable Wind from ESE
Gusts 4.0 mph

Today
High -- | Low -- °F
--% Chance of Precip.
Yesterday
High -- | Low -- °F
Precip. -- in
6:58 AM 6:47 PM
Waxing Crescent, 37% visible
Pressure 30.00 in
Visibility 0.2 miles
Clouds Overcast 100 ft
Dew Point 64 °F
Humidity 93%
Rainfall 0.00 in
Snow Depth Not available.
UV 16.0 out of 12
Pollen 4.60 out of 12
Air Quality Not available.
Flu Activity Not available.
METAR KPPQ 301415Z AUTO 05005KT M1/4SM FG OVC001 16/15 A3000 RMK AO2 T01560145

More Conditions Fewer Conditions

Pressure 30.00 in
Visibility 0.2 miles
Clouds Overcast 100 ft
Dew Point 64 °F
Humidity 93%
Rainfall 0.00 in
Snow Depth Not available.
UV 16.0 out of 12
Pollen 4.60 out of 12
Air Quality Not available.
Flu Activity Not available.
METAR KPPQ 301415Z AUTO 05005KT M1/4SM FG OVC001 16/15 A3000 RMK AO2 T01560145

More Conditions Fewer Conditions

10-Day Weather Forecast

Almanac

Astronomy

Sep. 30, 2014 Rise Set
Actual Time 6:58 AM CDT 6:47 PM CDT
Civil Twilight 6:31 AM CDT 7:13 PM CDT
Nautical Twilight 6:00 AM CDT 7:44 PM CDT
Astronomical Twilight 5:28 AM CDT 8:16 PM CDT
Moon 1:04 PM CDT 11:19 PM CDT
Length of Visible Light 12h 42m
Length of Day
11h 48m
Tomorrow will be 2m 32s shorter.
Waxing Crescent, 37% of the Moon is Illuminated
Today
Waxing Crescent
Oct 1
First Quarter
Oct 8
Full
Oct 15
Last Quarter
Oct 23
New

Today's Extremes

State Highs State Lows

Community

WunderPhotos

Upload Photos

1,757,641 photos uploaded!

WunderBlogs® & News

By Dr. Jeff Masters
Director of Meteorology, Weather Underground
By Kari Strenfel
Meteorologist, Weather Underground
By Christopher C. Burt
Weather Historian, Weather Underground
September 30, 2014
September 30, 2014
September 30, 2014

Nearby

Snow Depth

Station Depth Elevation
No new snow has been reported.

Earthquake Activity

City Distance Mag. Time & Date
No recent earthquake activity has been reported nearby.
Minimum magnitude displayed is 2.5.

Coastal Water Temperatures

Place Temperature
No Stations Reporting

Nearby Weather Stations